Station: Tatura  

  Atmospheric Gas Attenuation - ITU Rec 676-11   ----------------- dB/100km -----------------
Date Time Temp RH % AH g/m3 Dew Point Wind Direction Speed kph Gust kph Barometer mB Rainfall Since 9am 24GHz 47GHz 76GHz 122GHz 134GHz 241GHz
08/05 12:40 17.4 60 8.89 9.6 20 26 1013.1 0 20.0 25.3 39.1 102.8 97.6 336.2
08/05 12:30 16.4 65 9.07 9.8 15 22 1013.1 0 20.5 25.9 40.3 106.0 101.2 348.6
08/05 12:20 16.5 65 9.13 9.9 13 17 1013.1 0 20.6 26.0 40.5 106.5 101.8 350.9
08/05 12:10 17.1 61 8.88 9.5 17 20 1013.1 0 20.0 25.4 39.3 103.1 97.9 337.1
08/05 12:00 16.5 62 8.71 9.2 17 24 1013.1 0 19.7 25.3 38.9 102.1 96.4 332.0
08/05 11:50 16.7 66 9.38 10.3 15 19 1013.1 0 21.1 26.3 41.4 108.8 104.8 361.4
08/05 11:40 15.9 68 9.21 10 20 22 1013.1 0 20.8 26.3 41.2 108.1 103.7 357.3
08/05 11:30 15.9 71 9.61 10.7 17 24 1013.1 0 21.6 26.9 42.8 112.4 109.0 375.8
08/05 11:20 15.7 74 9.9 11.1 19 20 1013.1 0 22.3 27.4 44.1 115.8 113.1 390.3
08/05 11:10 15.5 78 10.31 11.7 15 17 1013.1 0 23.2 28.2 45.9 120.7 119.0 410.8
08/05 11:00 15 79 10.13 11.4 20 30 1013.1 0 22.8 28.0 45.4 119.4 117.3 404.8
08/05 10:50 14.5 79 9.83 10.9 26 30 1013.1 0 22.2 27.7 44.4 116.9 114.0 393.0
08/05 10:40 14.6 80 10.01 11.2 17 19 1013.1 0 22.6 28.0 45.1 118.7 116.3 401.1
08/05 10:30 14.2 81 9.89 11 24 30 1013.1 0 22.3 27.9 44.9 118.0 115.2 397.4
08/05 10:20 14.1 81 9.83 10.9 26 32 1013.1 0 22.2 27.8 44.7 117.5 114.6 395.0
08/05 10:10 14.3 82 10.07 11.3 28 32 1013.1 0 22.7 28.2 45.6 119.8 117.6 405.6
08/05 10:00 13.6 84 9.89 11 26 39 1013.1 0 22.4 28.1 45.2 118.9 116.1 400.5
08/05 09:50 13.8 83 9.89 11 24 28 1013.1 0 22.4 28.0 45.1 118.6 115.8 399.5
08/05 09:40 13.3 85 9.82 10.8 30 35 1013.1 0 22.2 28.1 45.1 118.6 115.6 398.6
08/05 09:30 13 86 9.75 10.7 26 39 1013.1 0 22.1 28.0 45.0 118.2 115.1 396.8
08/05 09:20 12.8 88 9.86 10.9 24 30 1013.1 0 22.3 28.3 45.5 119.8 116.9 403.2
08/05 09:10 12.4 90 9.83 10.8 26 32 1013.1 0 22.3 28.4 45.7 120.1 117.1 403.8
08/05 09:00 12.3 91 9.88 10.9 22 30 1013.1 0 22.4 28.5 45.9 120.8 118.0 406.8
08/05 08:50 11.9 93 9.85 10.8 20 26 1013.1 0 22.4 28.6 46.0 121.1 118.2 407.4
08/05 08:40 11.5 93 9.61 10.4 19 20 1013.1 0 21.9 28.3 45.2 118.9 115.4 397.6
08/05 08:30 11.4 95 9.75 10.6 19 26 1013.1 0 22.2 28.6 45.9 120.7 117.5 405.1
08/05 08:20 10.9 94 9.35 10 20 24 1013.1 0 21.3 28.0 44.5 116.9 112.6 387.8
08/05 08:10 10.7 95 9.33 9.9 19 22 1013.1 0 21.3 28.1 44.5 116.9 112.6 387.8
08/05 08:00 10.6 96 9.37 10 19 24 1013.1 0 21.4 28.2 44.7 117.5 113.3 390.3
08/05 07:50 10.3 98 9.39 10 15 20 1013.1 0 21.5 28.3 45.0 118.2 114.1 392.8
08/05 07:40 10 98 9.21 9.7 22 28 1013.1 0 21.1 28.1 44.4 116.6 112.0 385.4
08/05 07:30 9.8 98 9.09 9.5 19 24 1013.1 0 20.8 27.9 44.0 115.5 110.5 380.4
08/05 07:20 9.8 98 9.09 9.5 20 26 1013.1 0 20.8 27.9 44.0 115.5 110.5 380.4
08/05 07:10 9.7 99 9.13 9.6 19 22 1013.1 0 20.9 28.0 44.2 116.1 111.3 382.9
08/05 07:00 9.4 99 8.96 9.3 17 20 1013.1 0 20.6 27.8 43.6 114.6 109.3 375.9
08/05 06:50 9.3 98 8.81 9 17 22 1013.1 0 20.3 27.6 43.0 113.0 107.3 368.9
08/05 06:40 9.4 98 8.87 9.1 13 15 1013.1 0 20.4 27.7 43.2 113.6 108.0 371.4
08/05 06:30 9.3 97 8.72 8.8 15 17 1013.1 0 20.1 27.4 42.6 112.0 106.0 364.5
08/05 06:20 9.3 97 8.72 8.8 13 17 1013.1 0 20.1 27.4 42.6 112.0 106.0 364.5
08/05 06:10 9.2 96 8.58 8.6 13 13 1013.1 0 19.8 27.2 42.1 110.5 104.2 358.0
08/05 06:00 9.1 96 8.52 8.5 13 17 1013.1 0 19.6 27.2 41.9 110.0 103.5 355.6
08/05 05:50 9 95 8.38 8.2 13 15 1013.1 0 19.4 27.0 41.3 108.5 101.6 349.1
08/05 05:40 8.9 94 8.24 8 11 11 1013.1 0 19.1 26.7 40.8 107.1 99.8 342.7
08/05 05:30 9 93 8.2 7.9 13 15 1013.1 0 19.0 26.6 40.6 106.5 99.1 340.3
08/05 05:20 9.2 93 8.31 8.1 13 13 1013.1 0 19.2 26.8 40.9 107.5 100.4 344.8
08/05 05:10 9.3 92 8.27 8.1 11 13 1013.1 0 19.1 26.7 40.7 106.9 99.7 342.4
08/05 05:00 9.4 91 8.23 8 13 15 1013.1 0 19.0 26.6 40.5 106.3 99.0 340.0
08/05 04:50 9.4 90 8.14 7.8 13 15 1013.1 0 18.8 26.4 40.1 105.3 97.8 335.7
08/05 04:40 9.4 90 8.14 7.8 13 15 1013.1 0 18.8 26.4 40.1 105.3 97.8 335.7
08/05 04:30 9.4 89 8.05 7.7 13 19 1013.1 0 18.6 26.3 39.8 104.3 96.5 331.4
08/05 04:20 9.5 88 8.01 7.6 13 15 1013.1 0 18.5 26.2 39.5 103.7 95.9 329.0
08/05 04:10 9.6 87 7.97 7.5 15 17 1013.1 0 18.4 26.1 39.3 103.1 95.2 326.7
08/05 04:00 9.7 87 8.02 7.6 17 22 1013.1 0 18.5 26.1 39.5 103.6 95.7 328.6
08/05 03:50 9.7 86 7.93 7.5 13 17 1013.1 0 18.3 26.0 39.1 102.6 94.5 324.3
08/05 03:40 9.9 85 7.94 7.5 13 17 1013.1 0 18.4 25.9 39.0 102.4 94.4 324.0
08/05 03:30 10 84 7.9 7.4 13 20 1013.1 0 18.3 25.8 38.8 101.8 93.7 321.7
08/05 03:20 10.2 82 7.81 7.3 15 17 1013.1 0 18.1 25.6 38.4 100.6 92.3 316.6
08/05 03:10 10.3 80 7.66 7 17 22 1013.1 0 17.7 25.4 37.7 98.8 90.1 309.1
08/05 03:00 10.4 79 7.62 6.9 15 19 1013.1 0 17.6 25.3 37.5 98.3 89.5 306.9
08/05 02:50 10.4 78 7.52 6.7 17 20 1013.1 0 17.4 25.1 37.1 97.2 88.2 302.2
08/05 02:40 10.5 77 7.47 6.6 17 19 1013.1 0 17.3 25.0 36.8 96.5 87.4 299.5
08/05 02:30 10.6 77 7.52 6.7 17 24 1013.1 0 17.4 25.1 37.0 96.9 87.9 301.4
08/05 02:20 10.6 76 7.42 6.6 19 24 1013.1 0 17.2 24.9 36.6 95.9 86.6 296.8
08/05 02:10 10.6 76 7.42 6.6 15 17 1013.1 0 17.2 24.9 36.6 95.9 86.6 296.8
08/05 02:00 10.6 76 7.42 6.6 17 24 1013.1 0 17.2 24.9 36.6 95.9 86.6 296.8
08/05 01:50 10.6 75 7.32 6.4 19 20 1013.1 0 17.0 24.7 36.2 94.8 85.3 292.2
08/05 01:40 10.6 75 7.32 6.4 15 17 1013.1 0 17.0 24.7 36.2 94.8 85.3 292.2
08/05 01:30 10.6 75 7.32 6.4 19 28 1013.1 0 17.0 24.7 36.2 94.8 85.3 292.2
08/05 01:20 10.7 74 7.27 6.3 22 24 1013.1 0 16.9 24.6 36.0 94.1 84.5 289.5
08/05 01:10 10.6 74 7.22 6.2 20 26 1013.1 0 16.8 24.6 35.8 93.7 84.0 287.6
08/05 01:00 10.7 74 7.27 6.3 17 24 1013.1 0 16.9 24.6 36.0 94.1 84.5 289.5
08/05 00:50 10.7 73 7.17 6.1 22 28 1013.1 0 16.7 24.5 35.6 93.1 83.2 284.9
08/05 00:40 10.7 74 7.27 6.3 19 22 1013.1 0 16.9 24.6 36.0 94.1 84.5 289.5
08/05 00:30 10.6 73 7.13 6 17 24 1013.1 0 16.6 24.4 35.4 92.8 82.8 283.5
08/05 00:20 10.7 73 7.17 6.1 15 20 1013.1 0 16.7 24.5 35.6 93.1 83.2 284.9
08/05 00:10 10.7 72 7.07 5.9 17 20 1013.1 0 16.5 24.3 35.2 92.0 81.9 280.4
08/05 00:00 10.9 71 7.06 5.9 13 17 1013.1 0 16.4 24.2 35.0 91.7 81.6 279.2
07/05 23:50 10.9 72 7.16 6.1 11 15 1013.1 0 16.6 24.4 35.4 92.7 82.9 283.8
07/05 23:40 10.9 71 7.06 5.9 20 24 1013.1 0 16.4 24.2 35.0 91.7 81.6 279.2
07/05 23:30 11 71 7.11 6 15 24 1013.1 0 16.5 24.3 35.2 92.1 82.1 281.1
07/05 23:20 11 71 7.11 6 15 17 1013.1 0 16.5 24.3 35.2 92.1 82.1 281.1
07/05 23:10 10.9 71 7.06 5.9 20 24 1013.1 0 16.4 24.2 35.0 91.7 81.6 279.2
07/05 23:00 10.8 72 7.12 6 15 20 1013.1 0 16.6 24.4 35.3 92.4 82.5 282.3
07/05 22:50 10.7 72 7.07 5.9 13 13 1013.1 0 16.5 24.3 35.2 92.0 81.9 280.4
07/05 22:40 10.5 74 7.18 6.1 13 15 1013.1 0 16.7 24.5 35.7 93.4 83.6 286.1
07/05 22:30 10.7 72 7.07 5.9 13 19 1013.1 0 16.5 24.3 35.2 92.0 81.9 280.4
07/05 22:20 10.6 73 7.13 6 11 13 1013.1 0 16.6 24.4 35.4 92.8 82.8 283.5
07/05 22:10 10.7 73 7.17 6.1 15 17 1013.1 0 16.7 24.5 35.6 93.1 83.2 284.9
07/05 22:00 10.8 72 7.12 6 17 20 1013.1 0 16.6 24.4 35.3 92.4 82.5 282.3
07/05 21:50 10.8 71 7.02 5.8 11 15 1013.1 0 16.3 24.2 34.9 91.4 81.2 277.8
07/05 21:40 10.9 70 6.96 5.7 11 15 1013.1 0 16.2 24.1 34.6 90.6 80.3 274.7
07/05 21:30 11 70 7.01 5.7 15 24 1013.1 0 16.3 24.1 34.8 91.1 80.8 276.6
07/05 21:20 11 69 6.91 5.5 15 20 1013.1 0 16.1 24.0 34.4 90.0 79.5 272.1
07/05 21:10 11 70 7.01 5.7 15 19 1013.1 0 16.3 24.1 34.8 91.1 80.8 276.6
07/05 21:00 10.9 71 7.06 5.9 15 20 1013.1 0 16.4 24.2 35.0 91.7 81.6 279.2
07/05 20:50 10.9 72 7.16 6.1 11 15 1013.1 0 16.6 24.4 35.4 92.7 82.9 283.8
07/05 20:40 10.7 74 7.27 6.3 11 13 1013.1 0 16.9 24.6 36.0 94.1 84.5 289.5
07/05 20:30 10.7 74 7.27 6.3 11 17 1013.1 0 16.9 24.6 36.0 94.1 84.5 289.5
07/05 20:20 10.7 74 7.27 6.3 11 13 1013.1 0 16.9 24.6 36.0 94.1 84.5 289.5
07/05 20:10 10.8 73 7.22 6.2 15 17 1013.1 0 16.8 24.5 35.7 93.5 83.8 286.9

Last Refresh: 08-May-2026 12:09:23

Bureau of Meteorology